sensor_id;sensor_type;location;lat;lon;timestamp;P1;durP1;ratioP1;P2;durP2;ratioP2
48263;SDS011;34086;51.076;13.722;2023-05-29T00:00:54;17.02;;;11.55;;
48263;SDS011;34086;51.076;13.722;2023-05-29T00:01:54;15.02;;;11.35;;
48263;SDS011;34086;51.076;13.722;2023-05-29T00:02:55;14.73;;;11.10;;
48263;SDS011;34086;51.076;13.722;2023-05-29T00:03:56;15.55;;;10.98;;
48263;SDS011;34086;51.076;13.722;2023-05-29T00:04:56;18.63;;;11.50;;
48263;SDS011;34086;51.076;13.722;2023-05-29T00:05:57;13.75;;;10.55;;
48263;SDS011;34086;51.076;13.722;2023-05-29T00:06:57;15.55;;;10.85;;
48263;SDS011;34086;51.076;13.722;2023-05-29T00:07:58;14.05;;;10.60;;
48263;SDS011;34086;51.076;13.722;2023-05-29T00:08:58;15.43;;;10.50;;
48263;SDS011;34086;51.076;13.722;2023-05-29T00:09:59;13.90;;;10.57;;
48263;SDS011;34086;51.076;13.722;2023-05-29T00:11:00;16.35;;;10.73;;
48263;SDS011;34086;51.076;13.722;2023-05-29T00:12:00;14.73;;;10.45;;
48263;SDS011;34086;51.076;13.722;2023-05-29T00:13:02;13.73;;;10.38;;
48263;SDS011;34086;51.076;13.722;2023-05-29T00:14:03;12.98;;;10.27;;
48263;SDS011;34086;51.076;13.722;2023-05-29T00:15:04;12.40;;;9.98;;
48263;SDS011;34086;51.076;13.722;2023-05-29T00:16:05;15.02;;;10.02;;
48263;SDS011;34086;51.076;13.722;2023-05-29T00:17:06;13.95;;;10.38;;
48263;SDS011;34086;51.076;13.722;2023-05-29T00:18:07;13.65;;;10.50;;
48263;SDS011;34086;51.076;13.722;2023-05-29T00:19:07;13.35;;;9.80;;
48263;SDS011;34086;51.076;13.722;2023-05-29T00:20:09;16.33;;;10.43;;
48263;SDS011;34086;51.076;13.722;2023-05-29T00:21:13;17.05;;;10.38;;
48263;SDS011;34086;51.076;13.722;2023-05-29T00:22:14;17.52;;;10.30;;
48263;SDS011;34086;51.076;13.722;2023-05-29T00:23:15;13.07;;;10.27;;
48263;SDS011;34086;51.076;13.722;2023-05-29T00:24:15;15.23;;;10.20;;
48263;SDS011;34086;51.076;13.722;2023-05-29T00:25:17;12.45;;;9.55;;
48263;SDS011;34086;51.076;13.722;2023-05-29T00:26:18;13.90;;;10.48;;
48263;SDS011;34086;51.076;13.722;2023-05-29T00:27:24;14.63;;;10.55;;
48263;SDS011;34086;51.076;13.722;2023-05-29T00:28:25;14.05;;;10.45;;
48263;SDS011;34086;51.076;13.722;2023-05-29T00:29:26;14.38;;;10.50;;
48263;SDS011;34086;51.076;13.722;2023-05-29T00:30:28;14.70;;;10.57;;
48263;SDS011;34086;51.076;13.722;2023-05-29T00:31:29;14.63;;;10.32;;
48263;SDS011;34086;51.076;13.722;2023-05-29T00:32:30;13.40;;;10.32;;
48263;SDS011;34086;51.076;13.722;2023-05-29T00:33:30;14.07;;;10.15;;
48263;SDS011;34086;51.076;13.722;2023-05-29T00:34:31;14.48;;;10.25;;
48263;SDS011;34086;51.076;13.722;2023-05-29T00:35:32;14.20;;;10.15;;
48263;SDS011;34086;51.076;13.722;2023-05-29T00:36:33;15.63;;;10.82;;
48263;SDS011;34086;51.076;13.722;2023-05-29T00:37:35;14.50;;;10.50;;
48263;SDS011;34086;51.076;13.722;2023-05-29T00:38:35;14.93;;;10.55;;
48263;SDS011;34086;51.076;13.722;2023-05-29T00:39:36;14.52;;;10.55;;
48263;SDS011;34086;51.076;13.722;2023-05-29T00:40:36;14.43;;;10.38;;
48263;SDS011;34086;51.076;13.722;2023-05-29T00:41:37;14.02;;;10.48;;
48263;SDS011;34086;51.076;13.722;2023-05-29T00:42:38;14.70;;;9.98;;
48263;SDS011;34086;51.076;13.722;2023-05-29T00:43:39;14.35;;;10.05;;
48263;SDS011;34086;51.076;13.722;2023-05-29T00:44:39;14.57;;;10.60;;
48263;SDS011;34086;51.076;13.722;2023-05-29T00:45:40;14.38;;;10.07;;
48263;SDS011;34086;51.076;13.722;2023-05-29T00:46:40;15.95;;;10.80;;
48263;SDS011;34086;51.076;13.722;2023-05-29T00:47:41;16.05;;;10.35;;
48263;SDS011;34086;51.076;13.722;2023-05-29T00:48:41;13.60;;;10.27;;
48263;SDS011;34086;51.076;13.722;2023-05-29T00:49:42;13.20;;;9.75;;
48263;SDS011;34086;51.076;13.722;2023-05-29T00:50:43;13.82;;;9.90;;
48263;SDS011;34086;51.076;13.722;2023-05-29T00:51:44;15.95;;;10.30;;
48263;SDS011;34086;51.076;13.722;2023-05-29T00:52:46;15.10;;;10.10;;
48263;SDS011;34086;51.076;13.722;2023-05-29T00:53:47;14.13;;;10.10;;
48263;SDS011;34086;51.076;13.722;2023-05-29T00:54:50;13.88;;;9.65;;
48263;SDS011;34086;51.076;13.722;2023-05-29T00:55:52;14.60;;;9.55;;
48263;SDS011;34086;51.076;13.722;2023-05-29T00:56:53;16.85;;;10.40;;
48263;SDS011;34086;51.076;13.722;2023-05-29T00:57:54;16.05;;;10.35;;
48263;SDS011;34086;51.076;13.722;2023-05-29T00:58:55;15.07;;;10.13;;
48263;SDS011;34086;51.076;13.722;2023-05-29T00:59:55;17.33;;;10.20;;
48263;SDS011;34086;51.076;13.722;2023-05-29T01:00:57;17.65;;;11.15;;
48263;SDS011;34086;51.076;13.722;2023-05-29T01:01:58;18.38;;;10.38;;
48263;SDS011;34086;51.076;13.722;2023-05-29T01:02:59;14.43;;;9.77;;
48263;SDS011;34086;51.076;13.722;2023-05-29T01:04:03;14.75;;;10.10;;
48263;SDS011;34086;51.076;13.722;2023-05-29T01:05:08;14.75;;;9.77;;
48263;SDS011;34086;51.076;13.722;2023-05-29T01:06:09;15.25;;;9.63;;
48263;SDS011;34086;51.076;13.722;2023-05-29T01:07:10;15.93;;;10.48;;
48263;SDS011;34086;51.076;13.722;2023-05-29T01:08:11;17.30;;;9.75;;
48263;SDS011;34086;51.076;13.722;2023-05-29T01:09:12;15.57;;;9.70;;
48263;SDS011;34086;51.076;13.722;2023-05-29T01:10:13;15.20;;;9.57;;
48263;SDS011;34086;51.076;13.722;2023-05-29T01:11:20;14.73;;;9.93;;
48263;SDS011;34086;51.076;13.722;2023-05-29T01:13:57;16.25;;;9.68;;
48263;SDS011;34086;51.076;13.722;2023-05-29T01:15:17;17.10;;;9.88;;
48263;SDS011;34086;51.076;13.722;2023-05-29T01:16:48;16.23;;;10.40;;
48263;SDS011;34086;51.076;13.722;2023-05-29T01:20:48;16.23;;;10.07;;
48263;SDS011;34086;51.076;13.722;2023-05-29T01:22:40;15.57;;;9.65;;
48263;SDS011;34086;51.076;13.722;2023-05-29T01:23:37;15.50;;;9.80;;
48263;SDS011;34086;51.076;13.722;2023-05-29T01:25:07;16.67;;;10.02;;
48263;SDS011;34086;51.076;13.722;2023-05-29T01:27:52;15.45;;;9.75;;
48263;SDS011;34086;51.076;13.722;2023-05-29T01:28:56;14.52;;;9.45;;
48263;SDS011;34086;51.076;13.722;2023-05-29T01:30:00;13.50;;;9.57;;
48263;SDS011;34086;51.076;13.722;2023-05-29T01:31:03;15.65;;;10.23;;
48263;SDS011;34086;51.076;13.722;2023-05-29T01:32:04;15.50;;;10.10;;
48263;SDS011;34086;51.076;13.722;2023-05-29T01:33:05;17.45;;;10.30;;
48263;SDS011;34086;51.076;13.722;2023-05-29T01:34:06;15.80;;;10.25;;
48263;SDS011;34086;51.076;13.722;2023-05-29T01:35:08;13.82;;;9.93;;
48263;SDS011;34086;51.076;13.722;2023-05-29T01:36:09;17.02;;;10.45;;
48263;SDS011;34086;51.076;13.722;2023-05-29T01:37:11;14.40;;;9.75;;
48263;SDS011;34086;51.076;13.722;2023-05-29T01:38:11;14.50;;;9.65;;
48263;SDS011;34086;51.076;13.722;2023-05-29T01:39:12;16.67;;;9.95;;
48263;SDS011;34086;51.076;13.722;2023-05-29T01:40:13;14.27;;;9.13;;
48263;SDS011;34086;51.076;13.722;2023-05-29T01:41:14;12.60;;;9.30;;
48263;SDS011;34086;51.076;13.722;2023-05-29T01:42:15;14.60;;;9.55;;
48263;SDS011;34086;51.076;13.722;2023-05-29T01:43:16;13.82;;;9.10;;
48263;SDS011;34086;51.076;13.722;2023-05-29T01:44:17;12.70;;;9.00;;
48263;SDS011;34086;51.076;13.722;2023-05-29T01:45:20;14.20;;;8.88;;
48263;SDS011;34086;51.076;13.722;2023-05-29T01:46:21;13.95;;;8.73;;
48263;SDS011;34086;51.076;13.722;2023-05-29T01:47:23;13.45;;;8.57;;
48263;SDS011;34086;51.076;13.722;2023-05-29T01:48:24;11.02;;;8.48;;
48263;SDS011;34086;51.076;13.722;2023-05-29T01:49:25;11.77;;;9.02;;
48263;SDS011;34086;51.076;13.722;2023-05-29T01:50:27;13.23;;;8.98;;
48263;SDS011;34086;51.076;13.722;2023-05-29T01:51:29;12.20;;;8.77;;
48263;SDS011;34086;51.076;13.722;2023-05-29T01:52:31;12.75;;;8.85;;
48263;SDS011;34086;51.076;13.722;2023-05-29T01:53:32;12.10;;;8.32;;
48263;SDS011;34086;51.076;13.722;2023-05-29T01:54:33;13.32;;;9.02;;
48263;SDS011;34086;51.076;13.722;2023-05-29T01:55:33;13.07;;;8.60;;
48263;SDS011;34086;51.076;13.722;2023-05-29T01:56:34;12.35;;;8.45;;
48263;SDS011;34086;51.076;13.722;2023-05-29T01:57:35;11.60;;;8.43;;
48263;SDS011;34086;51.076;13.722;2023-05-29T01:58:38;12.75;;;8.75;;
48263;SDS011;34086;51.076;13.722;2023-05-29T01:59:39;13.68;;;8.15;;
48263;SDS011;34086;51.076;13.722;2023-05-29T02:00:41;13.35;;;8.60;;
48263;SDS011;34086;51.076;13.722;2023-05-29T02:01:42;11.38;;;7.97;;
48263;SDS011;34086;51.076;13.722;2023-05-29T02:02:42;11.88;;;8.35;;
48263;SDS011;34086;51.076;13.722;2023-05-29T02:03:43;11.15;;;8.48;;
48263;SDS011;34086;51.076;13.722;2023-05-29T02:04:44;12.20;;;7.78;;
48263;SDS011;34086;51.076;13.722;2023-05-29T02:05:44;11.60;;;7.90;;
48263;SDS011;34086;51.076;13.722;2023-05-29T02:06:45;11.52;;;8.30;;
48263;SDS011;34086;51.076;13.722;2023-05-29T02:07:46;11.65;;;8.13;;
48263;SDS011;34086;51.076;13.722;2023-05-29T02:08:46;9.93;;;7.68;;
48263;SDS011;34086;51.076;13.722;2023-05-29T02:09:47;12.45;;;8.52;;
48263;SDS011;34086;51.076;13.722;2023-05-29T02:10:48;11.55;;;8.32;;
48263;SDS011;34086;51.076;13.722;2023-05-29T02:11:48;11.02;;;8.00;;
48263;SDS011;34086;51.076;13.722;2023-05-29T02:12:49;13.25;;;8.20;;
48263;SDS011;34086;51.076;13.722;2023-05-29T02:13:50;9.65;;;7.75;;
48263;SDS011;34086;51.076;13.722;2023-05-29T02:14:51;11.75;;;7.95;;
48263;SDS011;34086;51.076;13.722;2023-05-29T02:15:52;11.93;;;8.00;;
48263;SDS011;34086;51.076;13.722;2023-05-29T02:16:53;10.40;;;8.00;;
48263;SDS011;34086;51.076;13.722;2023-05-29T02:17:53;10.25;;;7.55;;
48263;SDS011;34086;51.076;13.722;2023-05-29T02:18:54;11.35;;;8.48;;
48263;SDS011;34086;51.076;13.722;2023-05-29T02:19:55;12.43;;;8.50;;
48263;SDS011;34086;51.076;13.722;2023-05-29T02:20:55;11.50;;;8.27;;
48263;SDS011;34086;51.076;13.722;2023-05-29T02:21:56;10.02;;;8.07;;
48263;SDS011;34086;51.076;13.722;2023-05-29T02:22:56;11.10;;;8.30;;
48263;SDS011;34086;51.076;13.722;2023-05-29T02:23:58;12.48;;;8.02;;
48263;SDS011;34086;51.076;13.722;2023-05-29T02:24:59;10.43;;;7.90;;
48263;SDS011;34086;51.076;13.722;2023-05-29T02:26:00;11.73;;;7.88;;
48263;SDS011;34086;51.076;13.722;2023-05-29T02:27:01;10.93;;;7.95;;
48263;SDS011;34086;51.076;13.722;2023-05-29T02:28:03;11.23;;;7.95;;
48263;SDS011;34086;51.076;13.722;2023-05-29T02:29:03;12.50;;;7.90;;
48263;SDS011;34086;51.076;13.722;2023-05-29T02:30:07;10.52;;;7.97;;
48263;SDS011;34086;51.076;13.722;2023-05-29T02:31:08;11.20;;;8.02;;
48263;SDS011;34086;51.076;13.722;2023-05-29T02:32:10;10.40;;;7.88;;
48263;SDS011;34086;51.076;13.722;2023-05-29T02:33:11;10.80;;;8.05;;
48263;SDS011;34086;51.076;13.722;2023-05-29T02:34:11;10.52;;;7.63;;
48263;SDS011;34086;51.076;13.722;2023-05-29T02:35:12;10.60;;;7.63;;
48263;SDS011;34086;51.076;13.722;2023-05-29T02:36:17;10.52;;;7.63;;
48263;SDS011;34086;51.076;13.722;2023-05-29T02:37:18;12.00;;;8.35;;
48263;SDS011;34086;51.076;13.722;2023-05-29T02:38:18;11.10;;;8.25;;
48263;SDS011;34086;51.076;13.722;2023-05-29T02:39:19;11.07;;;8.10;;
48263;SDS011;34086;51.076;13.722;2023-05-29T02:40:20;11.52;;;7.78;;
48263;SDS011;34086;51.076;13.722;2023-05-29T02:41:21;10.57;;;8.02;;
48263;SDS011;34086;51.076;13.722;2023-05-29T02:42:24;12.23;;;7.85;;
48263;SDS011;34086;51.076;13.722;2023-05-29T02:43:25;11.35;;;8.23;;
48263;SDS011;34086;51.076;13.722;2023-05-29T02:44:25;11.52;;;8.00;;
48263;SDS011;34086;51.076;13.722;2023-05-29T02:45:26;10.55;;;8.20;;
48263;SDS011;34086;51.076;13.722;2023-05-29T02:46:28;10.18;;;7.53;;
48263;SDS011;34086;51.076;13.722;2023-05-29T02:47:28;11.07;;;8.18;;
48263;SDS011;34086;51.076;13.722;2023-05-29T02:48:30;11.80;;;8.00;;
48263;SDS011;34086;51.076;13.722;2023-05-29T02:49:31;10.35;;;7.50;;
48263;SDS011;34086;51.076;13.722;2023-05-29T02:50:32;8.75;;;7.15;;
48263;SDS011;34086;51.076;13.722;2023-05-29T02:51:32;10.43;;;7.78;;
48263;SDS011;34086;51.076;13.722;2023-05-29T02:52:33;10.18;;;7.80;;
48263;SDS011;34086;51.076;13.722;2023-05-29T02:53:33;11.60;;;8.10;;
48263;SDS011;34086;51.076;13.722;2023-05-29T02:54:34;11.65;;;7.60;;
48263;SDS011;34086;51.076;13.722;2023-05-29T02:55:37;10.20;;;7.45;;
48263;SDS011;34086;51.076;13.722;2023-05-29T02:56:39;11.18;;;8.20;;
48263;SDS011;34086;51.076;13.722;2023-05-29T02:57:39;10.27;;;7.47;;
48263;SDS011;34086;51.076;13.722;2023-05-29T02:58:40;12.32;;;7.57;;
48263;SDS011;34086;51.076;13.722;2023-05-29T02:59:41;10.65;;;7.95;;
48263;SDS011;34086;51.076;13.722;2023-05-29T03:00:44;11.50;;;8.15;;
48263;SDS011;34086;51.076;13.722;2023-05-29T03:01:44;10.10;;;7.70;;
48263;SDS011;34086;51.076;13.722;2023-05-29T03:02:46;9.75;;;7.50;;
48263;SDS011;34086;51.076;13.722;2023-05-29T03:03:46;10.50;;;7.78;;
48263;SDS011;34086;51.076;13.722;2023-05-29T03:04:47;10.18;;;7.28;;
48263;SDS011;34086;51.076;13.722;2023-05-29T03:05:53;10.77;;;7.47;;
48263;SDS011;34086;51.076;13.722;2023-05-29T03:06:53;14.30;;;8.55;;
48263;SDS011;34086;51.076;13.722;2023-05-29T03:07:54;11.30;;;7.78;;
48263;SDS011;34086;51.076;13.722;2023-05-29T03:08:55;11.90;;;7.93;;
48263;SDS011;34086;51.076;13.722;2023-05-29T03:09:56;9.90;;;7.50;;
48263;SDS011;34086;51.076;13.722;2023-05-29T03:10:56;11.85;;;7.88;;
48263;SDS011;34086;51.076;13.722;2023-05-29T03:11:57;9.25;;;7.45;;
48263;SDS011;34086;51.076;13.722;2023-05-29T03:12:57;11.23;;;7.57;;
48263;SDS011;34086;51.076;13.722;2023-05-29T03:13:58;12.82;;;8.52;;
48263;SDS011;34086;51.076;13.722;2023-05-29T03:14:59;11.13;;;8.48;;
48263;SDS011;34086;51.076;13.722;2023-05-29T03:16:01;11.75;;;8.27;;
48263;SDS011;34086;51.076;13.722;2023-05-29T03:17:03;11.05;;;7.97;;
48263;SDS011;34086;51.076;13.722;2023-05-29T03:18:05;11.65;;;7.90;;
48263;SDS011;34086;51.076;13.722;2023-05-29T03:19:07;11.07;;;8.18;;
48263;SDS011;34086;51.076;13.722;2023-05-29T03:20:07;11.48;;;8.05;;
48263;SDS011;34086;51.076;13.722;2023-05-29T03:21:08;10.20;;;7.93;;
48263;SDS011;34086;51.076;13.722;2023-05-29T03:22:09;10.75;;;7.95;;
48263;SDS011;34086;51.076;13.722;2023-05-29T03:23:11;12.88;;;8.75;;
48263;SDS011;34086;51.076;13.722;2023-05-29T03:24:12;10.68;;;8.30;;
48263;SDS011;34086;51.076;13.722;2023-05-29T03:25:16;12.52;;;8.15;;
48263;SDS011;34086;51.076;13.722;2023-05-29T03:26:17;12.48;;;8.23;;
48263;SDS011;34086;51.076;13.722;2023-05-29T03:27:19;10.32;;;7.50;;
48263;SDS011;34086;51.076;13.722;2023-05-29T03:28:27;12.80;;;8.20;;
48263;SDS011;34086;51.076;13.722;2023-05-29T03:29:28;10.93;;;7.95;;
48263;SDS011;34086;51.076;13.722;2023-05-29T03:30:30;10.18;;;7.65;;
48263;SDS011;34086;51.076;13.722;2023-05-29T03:31:31;10.98;;;7.82;;
48263;SDS011;34086;51.076;13.722;2023-05-29T03:32:32;14.32;;;8.20;;
48263;SDS011;34086;51.076;13.722;2023-05-29T03:33:33;10.65;;;7.95;;
48263;SDS011;34086;51.076;13.722;2023-05-29T03:34:49;9.43;;;7.47;;
48263;SDS011;34086;51.076;13.722;2023-05-29T03:35:49;10.32;;;8.27;;
48263;SDS011;34086;51.076;13.722;2023-05-29T03:36:50;11.45;;;8.18;;
48263;SDS011;34086;51.076;13.722;2023-05-29T03:37:50;13.70;;;8.00;;
48263;SDS011;34086;51.076;13.722;2023-05-29T03:38:51;11.48;;;7.82;;
48263;SDS011;34086;51.076;13.722;2023-05-29T03:39:53;11.50;;;8.32;;
48263;SDS011;34086;51.076;13.722;2023-05-29T03:40:54;12.25;;;8.55;;
48263;SDS011;34086;51.076;13.722;2023-05-29T03:41:54;11.32;;;8.55;;
48263;SDS011;34086;51.076;13.722;2023-05-29T03:42:56;13.73;;;9.00;;
48263;SDS011;34086;51.076;13.722;2023-05-29T03:43:56;13.38;;;9.27;;
48263;SDS011;34086;51.076;13.722;2023-05-29T03:45:00;12.15;;;9.13;;
48263;SDS011;34086;51.076;13.722;2023-05-29T03:46:02;12.50;;;9.63;;
48263;SDS011;34086;51.076;13.722;2023-05-29T03:47:04;15.32;;;9.35;;
48263;SDS011;34086;51.076;13.722;2023-05-29T03:48:08;14.52;;;9.23;;
48263;SDS011;34086;51.076;13.722;2023-05-29T03:49:09;13.38;;;9.32;;
48263;SDS011;34086;51.076;13.722;2023-05-29T03:50:10;13.18;;;9.55;;
48263;SDS011;34086;51.076;13.722;2023-05-29T03:51:15;13.05;;;10.15;;
48263;SDS011;34086;51.076;13.722;2023-05-29T03:52:16;16.75;;;9.88;;
48263;SDS011;34086;51.076;13.722;2023-05-29T03:53:16;15.05;;;10.10;;
48263;SDS011;34086;51.076;13.722;2023-05-29T03:54:17;13.13;;;9.85;;
48263;SDS011;34086;51.076;13.722;2023-05-29T03:55:19;13.75;;;9.30;;
48263;SDS011;34086;51.076;13.722;2023-05-29T03:56:19;12.40;;;9.20;;
48263;SDS011;34086;51.076;13.722;2023-05-29T03:57:21;11.95;;;9.00;;
48263;SDS011;34086;51.076;13.722;2023-05-29T03:58:23;11.15;;;9.00;;
48263;SDS011;34086;51.076;13.722;2023-05-29T03:59:23;11.77;;;8.73;;
48263;SDS011;34086;51.076;13.722;2023-05-29T04:00:24;14.35;;;9.57;;
48263;SDS011;34086;51.076;13.722;2023-05-29T04:01:26;11.50;;;9.18;;
48263;SDS011;34086;51.076;13.722;2023-05-29T04:02:28;15.07;;;10.13;;
48263;SDS011;34086;51.076;13.722;2023-05-29T04:03:29;14.23;;;9.80;;
48263;SDS011;34086;51.076;13.722;2023-05-29T04:04:32;16.33;;;9.48;;
48263;SDS011;34086;51.076;13.722;2023-05-29T04:05:32;13.27;;;9.45;;
48263;SDS011;34086;51.076;13.722;2023-05-29T04:06:33;13.93;;;9.45;;
48263;SDS011;34086;51.076;13.722;2023-05-29T04:07:38;13.70;;;9.20;;
48263;SDS011;34086;51.076;13.722;2023-05-29T04:08:39;10.75;;;8.43;;
48263;SDS011;34086;51.076;13.722;2023-05-29T04:09:39;11.85;;;8.73;;
48263;SDS011;34086;51.076;13.722;2023-05-29T04:10:40;13.05;;;8.95;;
48263;SDS011;34086;51.076;13.722;2023-05-29T04:11:40;13.02;;;8.77;;
48263;SDS011;34086;51.076;13.722;2023-05-29T04:12:41;10.40;;;8.40;;
48263;SDS011;34086;51.076;13.722;2023-05-29T04:13:42;9.75;;;7.20;;
48263;SDS011;34086;51.076;13.722;2023-05-29T04:14:43;10.10;;;7.93;;
48263;SDS011;34086;51.076;13.722;2023-05-29T04:15:44;11.35;;;7.80;;
48263;SDS011;34086;51.076;13.722;2023-05-29T04:16:44;11.80;;;8.02;;
48263;SDS011;34086;51.076;13.722;2023-05-29T04:17:45;11.52;;;7.95;;
48263;SDS011;34086;51.076;13.722;2023-05-29T04:18:46;10.90;;;7.72;;
48263;SDS011;34086;51.076;13.722;2023-05-29T04:19:46;11.20;;;7.80;;
48263;SDS011;34086;51.076;13.722;2023-05-29T04:20:47;10.93;;;7.70;;
48263;SDS011;34086;51.076;13.722;2023-05-29T04:21:47;10.32;;;7.65;;
48263;SDS011;34086;51.076;13.722;2023-05-29T04:22:48;9.50;;;7.95;;
48263;SDS011;34086;51.076;13.722;2023-05-29T04:23:49;10.75;;;7.25;;
48263;SDS011;34086;51.076;13.722;2023-05-29T04:24:50;12.23;;;7.80;;
48263;SDS011;34086;51.076;13.722;2023-05-29T04:25:51;8.63;;;6.88;;
48263;SDS011;34086;51.076;13.722;2023-05-29T04:26:57;9.13;;;7.10;;
48263;SDS011;34086;51.076;13.722;2023-05-29T04:28:01;10.15;;;7.10;;
48263;SDS011;34086;51.076;13.722;2023-05-29T04:29:03;8.32;;;6.93;;
48263;SDS011;34086;51.076;13.722;2023-05-29T04:30:06;9.55;;;6.85;;
48263;SDS011;34086;51.076;13.722;2023-05-29T04:31:12;10.60;;;7.30;;
48263;SDS011;34086;51.076;13.722;2023-05-29T04:32:15;9.52;;;7.10;;
48263;SDS011;34086;51.076;13.722;2023-05-29T04:33:16;12.02;;;7.00;;
48263;SDS011;34086;51.076;13.722;2023-05-29T04:34:21;9.93;;;6.78;;
48263;SDS011;34086;51.076;13.722;2023-05-29T04:35:22;11.68;;;8.68;;
48263;SDS011;34086;51.076;13.722;2023-05-29T04:36:31;12.98;;;8.27;;
48263;SDS011;34086;51.076;13.722;2023-05-29T04:37:41;10.65;;;7.70;;
48263;SDS011;34086;51.076;13.722;2023-05-29T04:38:44;10.45;;;7.28;;
48263;SDS011;34086;51.076;13.722;2023-05-29T04:39:45;10.50;;;7.53;;
48263;SDS011;34086;51.076;13.722;2023-05-29T04:40:53;9.05;;;6.90;;
48263;SDS011;34086;51.076;13.722;2023-05-29T04:41:57;9.88;;;7.30;;
48263;SDS011;34086;51.076;13.722;2023-05-29T04:43:02;8.73;;;7.45;;
48263;SDS011;34086;51.076;13.722;2023-05-29T04:44:17;9.63;;;7.55;;
48263;SDS011;34086;51.076;13.722;2023-05-29T04:45:21;9.57;;;7.32;;
48263;SDS011;34086;51.076;13.722;2023-05-29T04:46:23;9.35;;;7.20;;
48263;SDS011;34086;51.076;13.722;2023-05-29T04:47:25;9.70;;;7.72;;
48263;SDS011;34086;51.076;13.722;2023-05-29T04:48:26;9.95;;;7.25;;
48263;SDS011;34086;51.076;13.722;2023-05-29T04:49:27;9.43;;;7.55;;
48263;SDS011;34086;51.076;13.722;2023-05-29T04:50:28;10.85;;;7.97;;
48263;SDS011;34086;51.076;13.722;2023-05-29T04:51:31;10.68;;;8.18;;
48263;SDS011;34086;51.076;13.722;2023-05-29T04:52:32;10.43;;;8.15;;
48263;SDS011;34086;51.076;13.722;2023-05-29T04:53:32;9.18;;;7.75;;
48263;SDS011;34086;51.076;13.722;2023-05-29T04:54:33;12.10;;;7.53;;
48263;SDS011;34086;51.076;13.722;2023-05-29T04:55:35;9.32;;;7.40;;
48263;SDS011;34086;51.076;13.722;2023-05-29T04:56:36;11.32;;;8.20;;
48263;SDS011;34086;51.076;13.722;2023-05-29T04:57:41;11.38;;;7.80;;
48263;SDS011;34086;51.076;13.722;2023-05-29T04:58:43;10.93;;;7.68;;
48263;SDS011;34086;51.076;13.722;2023-05-29T04:59:44;9.80;;;7.80;;
48263;SDS011;34086;51.076;13.722;2023-05-29T05:00:46;10.10;;;7.60;;
48263;SDS011;34086;51.076;13.722;2023-05-29T05:01:48;8.82;;;7.25;;
48263;SDS011;34086;51.076;13.722;2023-05-29T05:02:49;9.05;;;7.40;;
48263;SDS011;34086;51.076;13.722;2023-05-29T05:03:49;9.88;;;7.43;;
48263;SDS011;34086;51.076;13.722;2023-05-29T05:04:50;8.52;;;7.25;;
48263;SDS011;34086;51.076;13.722;2023-05-29T05:05:51;9.88;;;7.50;;
48263;SDS011;34086;51.076;13.722;2023-05-29T05:06:52;10.43;;;6.97;;
48263;SDS011;34086;51.076;13.722;2023-05-29T05:07:52;11.75;;;7.32;;
48263;SDS011;34086;51.076;13.722;2023-05-29T05:08:53;8.57;;;7.15;;
48263;SDS011;34086;51.076;13.722;2023-05-29T05:09:54;12.27;;;7.35;;
48263;SDS011;34086;51.076;13.722;2023-05-29T05:10:59;9.10;;;6.72;;
48263;SDS011;34086;51.076;13.722;2023-05-29T05:12:01;9.50;;;6.57;;
48263;SDS011;34086;51.076;13.722;2023-05-29T05:13:03;8.95;;;6.63;;
48263;SDS011;34086;51.076;13.722;2023-05-29T05:14:07;9.05;;;7.00;;
48263;SDS011;34086;51.076;13.722;2023-05-29T05:15:07;10.35;;;8.55;;
48263;SDS011;34086;51.076;13.722;2023-05-29T05:16:09;9.82;;;7.45;;
48263;SDS011;34086;51.076;13.722;2023-05-29T05:17:12;10.10;;;7.20;;
48263;SDS011;34086;51.076;13.722;2023-05-29T05:18:13;10.10;;;7.38;;
48263;SDS011;34086;51.076;13.722;2023-05-29T05:19:15;9.05;;;7.53;;
48263;SDS011;34086;51.076;13.722;2023-05-29T05:20:17;9.48;;;7.43;;
48263;SDS011;34086;51.076;13.722;2023-05-29T05:21:22;11.25;;;7.32;;
48263;SDS011;34086;51.076;13.722;2023-05-29T05:22:23;9.55;;;7.70;;
48263;SDS011;34086;51.076;13.722;2023-05-29T05:23:24;10.95;;;7.25;;
48263;SDS011;34086;51.076;13.722;2023-05-29T05:24:25;10.23;;;7.50;;
48263;SDS011;34086;51.076;13.722;2023-05-29T05:25:26;9.30;;;7.28;;
48263;SDS011;34086;51.076;13.722;2023-05-29T05:26:27;9.02;;;7.30;;
48263;SDS011;34086;51.076;13.722;2023-05-29T05:27:27;10.77;;;7.47;;
48263;SDS011;34086;51.076;13.722;2023-05-29T05:28:28;8.88;;;7.70;;
48263;SDS011;34086;51.076;13.722;2023-05-29T05:29:28;10.05;;;7.90;;
48263;SDS011;34086;51.076;13.722;2023-05-29T05:30:31;10.85;;;7.70;;
48263;SDS011;34086;51.076;13.722;2023-05-29T05:31:33;9.93;;;7.70;;
48263;SDS011;34086;51.076;13.722;2023-05-29T05:32:34;10.20;;;7.97;;
48263;SDS011;34086;51.076;13.722;2023-05-29T05:33:39;12.10;;;7.65;;
48263;SDS011;34086;51.076;13.722;2023-05-29T05:34:40;9.05;;;7.57;;
48263;SDS011;34086;51.076;13.722;2023-05-29T05:35:42;9.05;;;7.60;;
48263;SDS011;34086;51.076;13.722;2023-05-29T05:36:42;11.05;;;7.95;;
48263;SDS011;34086;51.076;13.722;2023-05-29T05:37:47;10.82;;;7.82;;
48263;SDS011;34086;51.076;13.722;2023-05-29T05:38:48;10.15;;;7.72;;
48263;SDS011;34086;51.076;13.722;2023-05-29T05:39:49;9.00;;;7.43;;
48263;SDS011;34086;51.076;13.722;2023-05-29T05:40:50;10.30;;;8.05;;
48263;SDS011;34086;51.076;13.722;2023-05-29T05:41:58;10.85;;;8.23;;
48263;SDS011;34086;51.076;13.722;2023-05-29T05:43:19;11.73;;;8.00;;
48263;SDS011;34086;51.076;13.722;2023-05-29T05:44:40;10.75;;;8.00;;
48263;SDS011;34086;51.076;13.722;2023-05-29T05:45:45;9.27;;;7.63;;
48263;SDS011;34086;51.076;13.722;2023-05-29T05:46:45;11.27;;;8.10;;
48263;SDS011;34086;51.076;13.722;2023-05-29T05:47:47;11.05;;;7.85;;
48263;SDS011;34086;51.076;13.722;2023-05-29T05:48:48;11.20;;;7.85;;
48263;SDS011;34086;51.076;13.722;2023-05-29T05:49:50;11.63;;;7.80;;
48263;SDS011;34086;51.076;13.722;2023-05-29T05:50:51;12.82;;;7.95;;
48263;SDS011;34086;51.076;13.722;2023-05-29T05:51:52;11.35;;;8.20;;
48263;SDS011;34086;51.076;13.722;2023-05-29T05:52:53;9.82;;;7.85;;
48263;SDS011;34086;51.076;13.722;2023-05-29T05:53:54;12.23;;;8.15;;
48263;SDS011;34086;51.076;13.722;2023-05-29T05:54:54;11.07;;;8.05;;
48263;SDS011;34086;51.076;13.722;2023-05-29T05:55:56;10.00;;;8.30;;
48263;SDS011;34086;51.076;13.722;2023-05-29T05:56:56;10.23;;;8.15;;
48263;SDS011;34086;51.076;13.722;2023-05-29T05:57:58;10.23;;;7.95;;
48263;SDS011;34086;51.076;13.722;2023-05-29T05:58:58;10.95;;;8.35;;
48263;SDS011;34086;51.076;13.722;2023-05-29T05:59:59;10.57;;;8.25;;
48263;SDS011;34086;51.076;13.722;2023-05-29T06:01:00;9.27;;;8.27;;
48263;SDS011;34086;51.076;13.722;2023-05-29T06:02:01;10.32;;;7.57;;
48263;SDS011;34086;51.076;13.722;2023-05-29T06:03:03;11.50;;;8.68;;
48263;SDS011;34086;51.076;13.722;2023-05-29T06:04:30;11.38;;;7.53;;
48263;SDS011;34086;51.076;13.722;2023-05-29T06:05:30;11.60;;;8.45;;
48263;SDS011;34086;51.076;13.722;2023-05-29T06:06:31;10.10;;;7.60;;
48263;SDS011;34086;51.076;13.722;2023-05-29T06:07:32;9.98;;;8.30;;
48263;SDS011;34086;51.076;13.722;2023-05-29T06:08:33;8.95;;;7.82;;
48263;SDS011;34086;51.076;13.722;2023-05-29T06:09:33;11.05;;;7.85;;